sensor_id;sensor_type;location;lat;lon;timestamp;temperature;humidity
75500;DHT22;64076;51.466;7.260;2023-01-24T00:02:03;17.50;33.60
75500;DHT22;64076;51.466;7.260;2023-01-24T00:04:28;17.40;33.60
75500;DHT22;64076;51.466;7.260;2023-01-24T00:06:54;17.40;33.60
75500;DHT22;64076;51.466;7.260;2023-01-24T00:09:19;17.40;33.60
75500;DHT22;64076;51.466;7.260;2023-01-24T00:11:44;17.40;33.60
75500;DHT22;64076;51.466;7.260;2023-01-24T00:14:10;17.50;33.60
75500;DHT22;64076;51.466;7.260;2023-01-24T00:16:35;17.50;33.50
75500;DHT22;64076;51.466;7.260;2023-01-24T00:19:01;17.40;33.60
75500;DHT22;64076;51.466;7.260;2023-01-24T00:21:27;17.40;33.60
75500;DHT22;64076;51.466;7.260;2023-01-24T00:23:54;17.40;33.60
75500;DHT22;64076;51.466;7.260;2023-01-24T00:26:21;17.40;33.60
75500;DHT22;64076;51.466;7.260;2023-01-24T00:28:47;17.40;33.60
75500;DHT22;64076;51.466;7.260;2023-01-24T00:31:13;17.50;33.50
75500;DHT22;64076;51.466;7.260;2023-01-24T00:33:38;17.40;33.50
75500;DHT22;64076;51.466;7.260;2023-01-24T00:36:05;17.40;33.50
75500;DHT22;64076;51.466;7.260;2023-01-24T00:38:31;17.40;33.50
75500;DHT22;64076;51.466;7.260;2023-01-24T00:40:57;17.40;33.50
75500;DHT22;64076;51.466;7.260;2023-01-24T00:43:23;17.50;33.50
75500;DHT22;64076;51.466;7.260;2023-01-24T00:45:49;17.50;33.40
75500;DHT22;64076;51.466;7.260;2023-01-24T00:48:14;17.50;33.50
75500;DHT22;64076;51.466;7.260;2023-01-24T00:50:40;17.40;33.50
75500;DHT22;64076;51.466;7.260;2023-01-24T00:53:06;17.50;33.40
75500;DHT22;64076;51.466;7.260;2023-01-24T00:55:31;17.40;33.40
75500;DHT22;64076;51.466;7.260;2023-01-24T00:57:57;17.40;33.50
75500;DHT22;64076;51.466;7.260;2023-01-24T01:00:23;17.40;33.50
75500;DHT22;64076;51.466;7.260;2023-01-24T01:02:49;17.40;33.50
75500;DHT22;64076;51.466;7.260;2023-01-24T01:05:15;17.40;33.40
75500;DHT22;64076;51.466;7.260;2023-01-24T01:07:40;17.40;33.50
75500;DHT22;64076;51.466;7.260;2023-01-24T01:10:06;17.40;33.50
75500;DHT22;64076;51.466;7.260;2023-01-24T01:12:32;17.40;33.40
75500;DHT22;64076;51.466;7.260;2023-01-24T01:14:58;17.40;33.50
75500;DHT22;64076;51.466;7.260;2023-01-24T01:17:23;17.40;33.50
75500;DHT22;64076;51.466;7.260;2023-01-24T01:19:52;17.40;33.50
75500;DHT22;64076;51.466;7.260;2023-01-24T01:22:18;17.40;33.40
75500;DHT22;64076;51.466;7.260;2023-01-24T01:24:44;17.40;33.40
75500;DHT22;64076;51.466;7.260;2023-01-24T01:27:09;17.40;33.40
75500;DHT22;64076;51.466;7.260;2023-01-24T01:29:35;17.50;33.40
75500;DHT22;64076;51.466;7.260;2023-01-24T01:32:00;17.40;33.40
75500;DHT22;64076;51.466;7.260;2023-01-24T01:34:26;17.40;33.30
75500;DHT22;64076;51.466;7.260;2023-01-24T01:36:52;17.40;33.30
75500;DHT22;64076;51.466;7.260;2023-01-24T01:39:17;17.40;33.30
75500;DHT22;64076;51.466;7.260;2023-01-24T01:41:43;17.40;33.30
75500;DHT22;64076;51.466;7.260;2023-01-24T01:44:18;17.40;33.30
75500;DHT22;64076;51.466;7.260;2023-01-24T01:47:03;17.40;33.30
75500;DHT22;64076;51.466;7.260;2023-01-24T01:49:30;17.40;33.30
75500;DHT22;64076;51.466;7.260;2023-01-24T01:52:01;17.40;33.30
75500;DHT22;64076;51.466;7.260;2023-01-24T01:54:30;17.40;33.30
75500;DHT22;64076;51.466;7.260;2023-01-24T01:57:18;17.40;33.20
75500;DHT22;64076;51.466;7.260;2023-01-24T02:00:13;17.40;33.20
75500;DHT22;64076;51.466;7.260;2023-01-24T02:02:38;17.40;33.20
75500;DHT22;64076;51.466;7.260;2023-01-24T02:05:06;17.40;33.20
75500;DHT22;64076;51.466;7.260;2023-01-24T02:07:44;17.40;33.20
75500;DHT22;64076;51.466;7.260;2023-01-24T02:10:11;17.40;33.20
75500;DHT22;64076;51.466;7.260;2023-01-24T02:12:39;17.40;33.20
75500;DHT22;64076;51.466;7.260;2023-01-24T02:15:15;17.40;33.20
75500;DHT22;64076;51.466;7.260;2023-01-24T02:18:01;17.40;33.20
75500;DHT22;64076;51.466;7.260;2023-01-24T02:20:41;17.40;33.20
75500;DHT22;64076;51.466;7.260;2023-01-24T02:26:19;17.30;33.20
75500;DHT22;64076;51.466;7.260;2023-01-24T02:28:53;17.30;33.20
75500;DHT22;64076;51.466;7.260;2023-01-24T02:31:20;17.30;33.20
75500;DHT22;64076;51.466;7.260;2023-01-24T02:33:45;17.30;33.20
75500;DHT22;64076;51.466;7.260;2023-01-24T02:38:50;17.30;33.10
75500;DHT22;64076;51.466;7.260;2023-01-24T02:41:22;17.30;33.10
75500;DHT22;64076;51.466;7.260;2023-01-24T02:43:52;17.30;33.10
75500;DHT22;64076;51.466;7.260;2023-01-24T02:46:20;17.30;33.00
75500;DHT22;64076;51.466;7.260;2023-01-24T02:48:45;17.30;33.00
75500;DHT22;64076;51.466;7.260;2023-01-24T02:51:11;17.40;33.00
75500;DHT22;64076;51.466;7.260;2023-01-24T02:53:55;17.40;33.00
75500;DHT22;64076;51.466;7.260;2023-01-24T02:56:20;17.30;33.00
75500;DHT22;64076;51.466;7.260;2023-01-24T02:59:04;17.30;33.00
75500;DHT22;64076;51.466;7.260;2023-01-24T03:01:30;17.30;33.00
75500;DHT22;64076;51.466;7.260;2023-01-24T03:03:57;17.30;32.90
75500;DHT22;64076;51.466;7.260;2023-01-24T03:06:23;17.30;33.00
75500;DHT22;64076;51.466;7.260;2023-01-24T03:08:48;17.30;32.90
75500;DHT22;64076;51.466;7.260;2023-01-24T03:11:14;17.40;33.00
75500;DHT22;64076;51.466;7.260;2023-01-24T03:13:40;17.40;32.90
75500;DHT22;64076;51.466;7.260;2023-01-24T03:16:24;17.30;32.90
75500;DHT22;64076;51.466;7.260;2023-01-24T03:19:08;17.30;32.90
75500;DHT22;64076;51.466;7.260;2023-01-24T03:21:52;17.30;32.90
75500;DHT22;64076;51.466;7.260;2023-01-24T03:24:36;17.40;32.90
75500;DHT22;64076;51.466;7.260;2023-01-24T03:27:20;17.30;32.90
75500;DHT22;64076;51.466;7.260;2023-01-24T03:30:07;17.40;32.90
75500;DHT22;64076;51.466;7.260;2023-01-24T03:32:51;17.30;32.90
75500;DHT22;64076;51.466;7.260;2023-01-24T03:35:36;17.30;32.90
75500;DHT22;64076;51.466;7.260;2023-01-24T03:38:01;17.30;32.90
75500;DHT22;64076;51.466;7.260;2023-01-24T03:40:46;17.30;32.90
75500;DHT22;64076;51.466;7.260;2023-01-24T03:43:11;17.30;32.90
75500;DHT22;64076;51.466;7.260;2023-01-24T03:45:39;17.30;32.90
75500;DHT22;64076;51.466;7.260;2023-01-24T03:48:06;17.30;32.80
75500;DHT22;64076;51.466;7.260;2023-01-24T03:50:39;17.40;32.80
75500;DHT22;64076;51.466;7.260;2023-01-24T03:53:25;17.40;32.90
75500;DHT22;64076;51.466;7.260;2023-01-24T03:56:01;17.30;32.80
75500;DHT22;64076;51.466;7.260;2023-01-24T03:58:28;17.30;32.80
75500;DHT22;64076;51.466;7.260;2023-01-24T04:00:55;17.30;32.80
75500;DHT22;64076;51.466;7.260;2023-01-24T04:03:21;17.30;32.80
75500;DHT22;64076;51.466;7.260;2023-01-24T04:05:47;17.30;32.80
75500;DHT22;64076;51.466;7.260;2023-01-24T04:08:13;17.40;32.80
75500;DHT22;64076;51.466;7.260;2023-01-24T04:10:39;17.40;32.80
75500;DHT22;64076;51.466;7.260;2023-01-24T04:13:05;17.30;32.80
75500;DHT22;64076;51.466;7.260;2023-01-24T04:15:32;17.30;32.80
75500;DHT22;64076;51.466;7.260;2023-01-24T04:18:00;17.30;32.80
75500;DHT22;64076;51.466;7.260;2023-01-24T04:20:27;17.30;32.80
75500;DHT22;64076;51.466;7.260;2023-01-24T04:22:53;17.30;32.80
75500;DHT22;64076;51.466;7.260;2023-01-24T04:25:19;17.30;32.80
75500;DHT22;64076;51.466;7.260;2023-01-24T04:27:45;17.30;32.80
75500;DHT22;64076;51.466;7.260;2023-01-24T04:30:13;17.20;32.80
75500;DHT22;64076;51.466;7.260;2023-01-24T04:32:39;17.30;32.80
75500;DHT22;64076;51.466;7.260;2023-01-24T04:35:05;17.30;32.80
75500;DHT22;64076;51.466;7.260;2023-01-24T04:37:32;17.30;32.80
75500;DHT22;64076;51.466;7.260;2023-01-24T04:39:57;17.30;32.80
75500;DHT22;64076;51.466;7.260;2023-01-24T04:42:23;17.30;32.70
75500;DHT22;64076;51.466;7.260;2023-01-24T04:44:49;17.30;32.70
75500;DHT22;64076;51.466;7.260;2023-01-24T04:47:15;17.30;32.70
75500;DHT22;64076;51.466;7.260;2023-01-24T04:49:40;17.40;32.70
75500;DHT22;64076;51.466;7.260;2023-01-24T04:52:12;17.40;32.70
75500;DHT22;64076;51.466;7.260;2023-01-24T04:54:38;17.40;32.70
75500;DHT22;64076;51.466;7.260;2023-01-24T04:57:04;17.40;32.70
75500;DHT22;64076;51.466;7.260;2023-01-24T04:59:30;17.40;32.70
75500;DHT22;64076;51.466;7.260;2023-01-24T05:01:56;17.40;32.70
75500;DHT22;64076;51.466;7.260;2023-01-24T05:04:21;17.40;32.70
75500;DHT22;64076;51.466;7.260;2023-01-24T05:06:47;17.40;32.70
75500;DHT22;64076;51.466;7.260;2023-01-24T05:09:12;17.40;32.70
75500;DHT22;64076;51.466;7.260;2023-01-24T05:11:38;17.40;32.70
75500;DHT22;64076;51.466;7.260;2023-01-24T05:14:03;17.40;32.60
75500;DHT22;64076;51.466;7.260;2023-01-24T05:16:29;17.40;32.60
75500;DHT22;64076;51.466;7.260;2023-01-24T05:18:54;17.40;32.70
75500;DHT22;64076;51.466;7.260;2023-01-24T05:21:20;17.40;32.70
75500;DHT22;64076;51.466;7.260;2023-01-24T05:23:50;17.40;32.60
75500;DHT22;64076;51.466;7.260;2023-01-24T05:26:18;17.40;32.60
75500;DHT22;64076;51.466;7.260;2023-01-24T05:28:43;17.40;32.60
75500;DHT22;64076;51.466;7.260;2023-01-24T05:31:09;17.40;32.60
75500;DHT22;64076;51.466;7.260;2023-01-24T05:33:35;17.40;32.70
75500;DHT22;64076;51.466;7.260;2023-01-24T05:36:06;17.40;32.60
75500;DHT22;64076;51.466;7.260;2023-01-24T05:38:33;17.40;32.70
75500;DHT22;64076;51.466;7.260;2023-01-24T05:41:03;17.40;32.60
75500;DHT22;64076;51.466;7.260;2023-01-24T05:43:29;17.40;32.60
75500;DHT22;64076;51.466;7.260;2023-01-24T05:46:06;17.40;32.70
75500;DHT22;64076;51.466;7.260;2023-01-24T05:48:32;17.40;32.60
75500;DHT22;64076;51.466;7.260;2023-01-24T05:50:58;17.40;32.60
75500;DHT22;64076;51.466;7.260;2023-01-24T05:53:27;17.40;32.60
75500;DHT22;64076;51.466;7.260;2023-01-24T05:56:01;17.40;32.60
75500;DHT22;64076;51.466;7.260;2023-01-24T05:58:28;17.40;32.60
75500;DHT22;64076;51.466;7.260;2023-01-24T06:00:55;17.40;32.70
75500;DHT22;64076;51.466;7.260;2023-01-24T06:03:21;17.40;32.70
75500;DHT22;64076;51.466;7.260;2023-01-24T06:05:48;17.40;32.70
75500;DHT22;64076;51.466;7.260;2023-01-24T06:08:14;17.40;32.70
75500;DHT22;64076;51.466;7.260;2023-01-24T06:10:40;17.40;32.60
75500;DHT22;64076;51.466;7.260;2023-01-24T06:13:05;17.40;32.70
75500;DHT22;64076;51.466;7.260;2023-01-24T06:15:34;17.40;32.60
75500;DHT22;64076;51.466;7.260;2023-01-24T06:18:00;17.40;32.70
75500;DHT22;64076;51.466;7.260;2023-01-24T06:20:25;17.30;32.60
75500;DHT22;64076;51.466;7.260;2023-01-24T06:22:53;17.30;32.60
75500;DHT22;64076;51.466;7.260;2023-01-24T06:25:22;17.30;32.70
75500;DHT22;64076;51.466;7.260;2023-01-24T06:27:48;17.30;32.60
75500;DHT22;64076;51.466;7.260;2023-01-24T06:30:15;17.30;32.50
75500;DHT22;64076;51.466;7.260;2023-01-24T06:32:57;17.40;32.50
75500;DHT22;64076;51.466;7.260;2023-01-24T06:38:02;17.50;32.30
75500;DHT22;64076;51.466;7.260;2023-01-24T06:40:28;17.50;32.20
75500;DHT22;64076;51.466;7.260;2023-01-24T06:42:56;17.50;32.20
75500;DHT22;64076;51.466;7.260;2023-01-24T06:45:21;17.50;32.20
75500;DHT22;64076;51.466;7.260;2023-01-24T06:47:47;17.60;32.10
75500;DHT22;64076;51.466;7.260;2023-01-24T06:50:18;17.50;32.10
75500;DHT22;64076;51.466;7.260;2023-01-24T06:52:48;17.60;32.00
75500;DHT22;64076;51.466;7.260;2023-01-24T06:55:14;17.60;32.00
75500;DHT22;64076;51.466;7.260;2023-01-24T06:57:40;17.60;32.00
75500;DHT22;64076;51.466;7.260;2023-01-24T07:00:07;17.60;32.00
75500;DHT22;64076;51.466;7.260;2023-01-24T07:02:32;17.70;32.00
75500;DHT22;64076;51.466;7.260;2023-01-24T07:04:58;17.70;32.00
75500;DHT22;64076;51.466;7.260;2023-01-24T07:12:15;17.70;31.90
75500;DHT22;64076;51.466;7.260;2023-01-24T07:14:41;15.90;33.70
75500;DHT22;64076;51.466;7.260;2023-01-24T07:17:08;16.10;33.60
75500;DHT22;64076;51.466;7.260;2023-01-24T07:19:33;16.30;33.50
75500;DHT22;64076;51.466;7.260;2023-01-24T07:21:59;16.50;33.30
75500;DHT22;64076;51.466;7.260;2023-01-24T07:24:28;16.70;33.20
75500;DHT22;64076;51.466;7.260;2023-01-24T07:26:55;16.70;33.10
75500;DHT22;64076;51.466;7.260;2023-01-24T07:29:21;16.90;33.00
75500;DHT22;64076;51.466;7.260;2023-01-24T07:31:47;17.00;32.90
75500;DHT22;64076;51.466;7.260;2023-01-24T07:34:14;17.10;32.80
75500;DHT22;64076;51.466;7.260;2023-01-24T07:36:41;17.20;32.70
75500;DHT22;64076;51.466;7.260;2023-01-24T07:39:08;17.20;32.60
75500;DHT22;64076;51.466;7.260;2023-01-24T07:41:35;17.30;32.60
75500;DHT22;64076;51.466;7.260;2023-01-24T07:44:00;17.50;32.40
75500;DHT22;64076;51.466;7.260;2023-01-24T07:46:30;17.60;32.20
75500;DHT22;64076;51.466;7.260;2023-01-24T07:48:56;17.70;32.10
75500;DHT22;64076;51.466;7.260;2023-01-24T07:51:21;17.90;32.00
75500;DHT22;64076;51.466;7.260;2023-01-24T07:53:47;17.90;31.90
75500;DHT22;64076;51.466;7.260;2023-01-24T07:56:13;18.00;31.90
75500;DHT22;64076;51.466;7.260;2023-01-24T07:58:40;18.10;32.10
75500;DHT22;64076;51.466;7.260;2023-01-24T08:01:06;18.10;31.90
75500;DHT22;64076;51.466;7.260;2023-01-24T08:03:31;18.20;31.80
75500;DHT22;64076;51.466;7.260;2023-01-24T08:05:57;18.20;31.70
75500;DHT22;64076;51.466;7.260;2023-01-24T08:08:23;18.20;31.60
75500;DHT22;64076;51.466;7.260;2023-01-24T08:10:48;18.30;31.50
75500;DHT22;64076;51.466;7.260;2023-01-24T08:13:14;18.30;31.50
75500;DHT22;64076;51.466;7.260;2023-01-24T08:15:39;18.30;31.50
75500;DHT22;64076;51.466;7.260;2023-01-24T08:18:05;18.30;31.40
75500;DHT22;64076;51.466;7.260;2023-01-24T08:20:30;18.40;31.40
75500;DHT22;64076;51.466;7.260;2023-01-24T08:22:57;18.40;31.40
75500;DHT22;64076;51.466;7.260;2023-01-24T08:25:23;18.40;31.40
75500;DHT22;64076;51.466;7.260;2023-01-24T08:27:49;18.40;31.40
75500;DHT22;64076;51.466;7.260;2023-01-24T08:30:14;18.50;31.40
75500;DHT22;64076;51.466;7.260;2023-01-24T08:32:41;18.50;31.40
75500;DHT22;64076;51.466;7.260;2023-01-24T08:35:07;18.50;31.40
75500;DHT22;64076;51.466;7.260;2023-01-24T08:37:33;18.50;31.20
75500;DHT22;64076;51.466;7.260;2023-01-24T08:39:58;18.50;31.30
75500;DHT22;64076;51.466;7.260;2023-01-24T08:42:24;18.60;31.20
75500;DHT22;64076;51.466;7.260;2023-01-24T08:44:50;18.40;31.20
75500;DHT22;64076;51.466;7.260;2023-01-24T08:47:17;18.00;31.50
75500;DHT22;64076;51.466;7.260;2023-01-24T08:49:42;17.60;31.90
75500;DHT22;64076;51.466;7.260;2023-01-24T08:52:08;17.30;32.20
75500;DHT22;64076;51.466;7.260;2023-01-24T08:54:33;17.40;32.20
75500;DHT22;64076;51.466;7.260;2023-01-24T08:57:01;17.50;32.20
75500;DHT22;64076;51.466;7.260;2023-01-24T08:59:27;17.60;32.00
75500;DHT22;64076;51.466;7.260;2023-01-24T09:01:52;17.70;32.00
75500;DHT22;64076;51.466;7.260;2023-01-24T09:04:18;17.80;31.80
75500;DHT22;64076;51.466;7.260;2023-01-24T09:06:44;17.80;31.80
75500;DHT22;64076;51.466;7.260;2023-01-24T09:09:09;17.90;31.70
75500;DHT22;64076;51.466;7.260;2023-01-24T09:11:35;18.00;31.70
75500;DHT22;64076;51.466;7.260;2023-01-24T09:14:01;18.00;31.60
75500;DHT22;64076;51.466;7.260;2023-01-24T09:16:26;18.10;31.50
75500;DHT22;64076;51.466;7.260;2023-01-24T09:18:53;18.20;31.60
75500;DHT22;64076;51.466;7.260;2023-01-24T09:21:19;18.20;31.50
75500;DHT22;64076;51.466;7.260;2023-01-24T09:23:45;18.30;31.50
75500;DHT22;64076;51.466;7.260;2023-01-24T09:26:10;18.30;31.40
75500;DHT22;64076;51.466;7.260;2023-01-24T09:28:36;18.30;31.40
75500;DHT22;64076;51.466;7.260;2023-01-24T09:31:02;18.40;31.40
75500;DHT22;64076;51.466;7.260;2023-01-24T09:33:28;18.40;31.30
75500;DHT22;64076;51.466;7.260;2023-01-24T09:36:02;18.40;31.40
75500;DHT22;64076;51.466;7.260;2023-01-24T09:38:30;18.40;31.60
75500;DHT22;64076;51.466;7.260;2023-01-24T09:43:45;18.50;31.90
75500;DHT22;64076;51.466;7.260;2023-01-24T09:51:39;18.50;31.20
75500;DHT22;64076;51.466;7.260;2023-01-24T09:54:09;18.50;31.10
75500;DHT22;64076;51.466;7.260;2023-01-24T09:56:41;18.50;31.10
75500;DHT22;64076;51.466;7.260;2023-01-24T10:01:51;18.60;31.00
75500;DHT22;64076;51.466;7.260;2023-01-24T10:04:26;18.60;31.10
75500;DHT22;64076;51.466;7.260;2023-01-24T10:09:42;18.60;30.90
75500;DHT22;64076;51.466;7.260;2023-01-24T10:13:14;18.60;30.90
75500;DHT22;64076;51.466;7.260;2023-01-24T10:15:29;18.60;31.00
75500;DHT22;64076;51.466;7.260;2023-01-24T10:23:20;18.60;31.00
75500;DHT22;64076;51.466;7.260;2023-01-24T10:28:37;18.60;31.00
75500;DHT22;64076;51.466;7.260;2023-01-24T10:31:11;18.60;31.00
75500;DHT22;64076;51.466;7.260;2023-01-24T10:33:45;18.60;31.00
75500;DHT22;64076;51.466;7.260;2023-01-24T10:36:30;18.60;31.10
75500;DHT22;64076;51.466;7.260;2023-01-24T10:38:58;18.60;31.10
75500;DHT22;64076;51.466;7.260;2023-01-24T10:41:25;18.60;31.20
75500;DHT22;64076;51.466;7.260;2023-01-24T10:44:02;18.70;31.20
75500;DHT22;64076;51.466;7.260;2023-01-24T10:49:19;18.70;31.20
75500;DHT22;64076;51.466;7.260;2023-01-24T10:54:58;18.80;31.10
75500;DHT22;64076;51.466;7.260;2023-01-24T10:57:42;18.80;31.20
75500;DHT22;64076;51.466;7.260;2023-01-24T11:02:40;18.90;31.00
75500;DHT22;64076;51.466;7.260;2023-01-24T11:05:12;18.80;31.00
75500;DHT22;64076;51.466;7.260;2023-01-24T11:07:45;18.90;31.00
75500;DHT22;64076;51.466;7.260;2023-01-24T11:10:26;18.90;30.90
75500;DHT22;64076;51.466;7.260;2023-01-24T11:15:29;18.90;30.90
75500;DHT22;64076;51.466;7.260;2023-01-24T11:18:17;18.90;30.90
75500;DHT22;64076;51.466;7.260;2023-01-24T11:20:44;18.90;31.00
75500;DHT22;64076;51.466;7.260;2023-01-24T11:23:19;18.90;30.80
75500;DHT22;64076;51.466;7.260;2023-01-24T11:25:55;18.90;30.80
75500;DHT22;64076;51.466;7.260;2023-01-24T11:31:00;18.90;30.90
75500;DHT22;64076;51.466;7.260;2023-01-24T11:36:00;18.90;30.80
75500;DHT22;64076;51.466;7.260;2023-01-24T11:38:37;18.90;30.90
75500;DHT22;64076;51.466;7.260;2023-01-24T11:46:52;19.10;31.50
75500;DHT22;64076;51.466;7.260;2023-01-24T12:05:55;19.10;30.80
75500;DHT22;64076;51.466;7.260;2023-01-24T12:14:36;19.20;30.70
75500;DHT22;64076;51.466;7.260;2023-01-24T12:22:48;19.20;30.70
75500;DHT22;64076;51.466;7.260;2023-01-24T12:25:36;19.30;30.60
75500;DHT22;64076;51.466;7.260;2023-01-24T12:28:05;19.30;30.60
75500;DHT22;64076;51.466;7.260;2023-01-24T12:30:37;19.30;30.60
75500;DHT22;64076;51.466;7.260;2023-01-24T12:38:45;19.40;30.70
75500;DHT22;64076;51.466;7.260;2023-01-24T12:46:28;19.40;30.50
75500;DHT22;64076;51.466;7.260;2023-01-24T12:49:02;19.40;30.40
75500;DHT22;64076;51.466;7.260;2023-01-24T12:51:41;19.40;30.40
75500;DHT22;64076;51.466;7.260;2023-01-24T12:54:11;19.40;30.40
75500;DHT22;64076;51.466;7.260;2023-01-24T12:59:10;19.40;30.50
75500;DHT22;64076;51.466;7.260;2023-01-24T13:12:34;19.40;30.60
75500;DHT22;64076;51.466;7.260;2023-01-24T13:15:05;19.40;30.60
75500;DHT22;64076;51.466;7.260;2023-01-24T14:00:03;19.60;30.40
75500;DHT22;64076;51.466;7.260;2023-01-24T14:20:14;19.50;30.40
75500;DHT22;64076;51.466;7.260;2023-01-24T14:22:44;19.10;30.30
75500;DHT22;64076;51.466;7.260;2023-01-24T14:25:29;19.20;30.20
75500;DHT22;64076;51.466;7.260;2023-01-24T14:28:02;19.30;30.20
75500;DHT22;64076;51.466;7.260;2023-01-24T15:51:37;19.30;30.10
75500;DHT22;64076;51.466;7.260;2023-01-24T15:54:14;19.70;29.40
75500;DHT22;64076;51.466;7.260;2023-01-24T16:33:35;19.60;29.40
75500;DHT22;64076;51.466;7.260;2023-01-24T16:48:14;19.50;29.50
75500;DHT22;64076;51.466;7.260;2023-01-24T17:44:17;19.50;29.40
75500;DHT22;64076;51.466;7.260;2023-01-24T17:46:43;19.00;30.00
75500;DHT22;64076;51.466;7.260;2023-01-24T19:14:45;19.00;30.10
75500;DHT22;64076;51.466;7.260;2023-01-24T19:17:10;18.60;30.50
75500;DHT22;64076;51.466;7.260;2023-01-24T19:19:36;18.60;30.50
75500;DHT22;64076;51.466;7.260;2023-01-24T19:22:03;18.70;30.50
75500;DHT22;64076;51.466;7.260;2023-01-24T20:59:47;18.60;30.50
75500;DHT22;64076;51.466;7.260;2023-01-24T21:48:58;18.30;31.00
75500;DHT22;64076;51.466;7.260;2023-01-24T22:01:51;18.40;30.90
75500;DHT22;64076;51.466;7.260;2023-01-24T22:06:44;18.40;30.90
75500;DHT22;64076;51.466;7.260;2023-01-24T22:09:10;18.40;30.90
75500;DHT22;64076;51.466;7.260;2023-01-24T22:11:37;18.40;30.90
75500;DHT22;64076;51.466;7.260;2023-01-24T22:14:03;18.40;30.90
75500;DHT22;64076;51.466;7.260;2023-01-24T22:16:29;18.40;30.80
75500;DHT22;64076;51.466;7.260;2023-01-24T22:18:55;18.40;30.90
75500;DHT22;64076;51.466;7.260;2023-01-24T22:22:05;18.40;30.90
75500;DHT22;64076;51.466;7.260;2023-01-24T22:27:21;18.40;30.90
75500;DHT22;64076;51.466;7.260;2023-01-24T22:29:49;18.40;30.90
75500;DHT22;64076;51.466;7.260;2023-01-24T22:32:17;18.40;30.90
75500;DHT22;64076;51.466;7.260;2023-01-24T22:34:43;18.40;30.90
75500;DHT22;64076;51.466;7.260;2023-01-24T22:39:37;18.40;30.90
75500;DHT22;64076;51.466;7.260;2023-01-24T22:42:03;18.40;31.00
75500;DHT22;64076;51.466;7.260;2023-01-24T22:44:28;18.40;30.90
75500;DHT22;64076;51.466;7.260;2023-01-24T22:46:54;18.40;30.90
75500;DHT22;64076;51.466;7.260;2023-01-24T22:49:20;18.40;31.00
75500;DHT22;64076;51.466;7.260;2023-01-24T22:51:45;18.30;31.00
75500;DHT22;64076;51.466;7.260;2023-01-24T22:54:11;18.30;30.90
75500;DHT22;64076;51.466;7.260;2023-01-24T22:56:36;18.30;31.00
75500;DHT22;64076;51.466;7.260;2023-01-24T22:59:02;18.30;30.90
75500;DHT22;64076;51.466;7.260;2023-01-24T23:01:27;18.40;31.00
75500;DHT22;64076;51.466;7.260;2023-01-24T23:03:53;18.30;31.00
75500;DHT22;64076;51.466;7.260;2023-01-24T23:06:18;18.40;31.00
75500;DHT22;64076;51.466;7.260;2023-01-24T23:08:44;18.30;31.00
75500;DHT22;64076;51.466;7.260;2023-01-24T23:11:14;18.30;30.90
75500;DHT22;64076;51.466;7.260;2023-01-24T23:13:41;18.30;31.00
75500;DHT22;64076;51.466;7.260;2023-01-24T23:16:32;18.30;30.90
75500;DHT22;64076;51.466;7.260;2023-01-24T23:18:58;18.30;30.90
75500;DHT22;64076;51.466;7.260;2023-01-24T23:21:42;18.30;30.90
75500;DHT22;64076;51.466;7.260;2023-01-24T23:24:08;18.30;30.90
75500;DHT22;64076;51.466;7.260;2023-01-24T23:26:33;18.30;31.00
75500;DHT22;64076;51.466;7.260;2023-01-24T23:31:34;18.30;30.90
75500;DHT22;64076;51.466;7.260;2023-01-24T23:34:00;18.30;30.90
75500;DHT22;64076;51.466;7.260;2023-01-24T23:36:26;18.30;30.90
75500;DHT22;64076;51.466;7.260;2023-01-24T23:38:52;18.30;30.90
75500;DHT22;64076;51.466;7.260;2023-01-24T23:41:17;18.30;30.90
75500;DHT22;64076;51.466;7.260;2023-01-24T23:43:43;18.30;30.90
75500;DHT22;64076;51.466;7.260;2023-01-24T23:46:09;18.30;30.90
75500;DHT22;64076;51.466;7.260;2023-01-24T23:48:36;18.30;31.00
75500;DHT22;64076;51.466;7.260;2023-01-24T23:51:01;18.30;30.90
75500;DHT22;64076;51.466;7.260;2023-01-24T23:53:27;18.30;30.90
75500;DHT22;64076;51.466;7.260;2023-01-24T23:55:53;18.30;30.90
75500;DHT22;64076;51.466;7.260;2023-01-24T23:58:19;18.30;31.00
